Time;durP1;ratioP1;P1;durP2;ratioP2;P2;SDS_P1;SDS_P2;PMS_P1;PMS_P2;Temp;Humidity;BMP_temperature;BMP_pressure;BME280_temperature;BME280_humidity;BME280_pressure;Samples;Min_cycle;Max_cycle;Signal;HPM_P1;HPM_P2
2022/01/23 06:27:34;;;;;;;;;;;22.90;75.00;;;;;;5090090;28;20015;-70
2022/01/23 06:30:00;;;;;;;;;;;22.80;75.40;;;;;;5064464;28;20342;-69
2022/01/23 06:32:28;;;;;;;;;;;22.80;75.90;;;;;;5073632;28;19911;-69
2022/01/23 06:34:54;;;;;;;;;;;22.80;75.90;;;;;;5073820;28;19908;-69
2022/01/23 06:37:21;;;;;;;;;;;22.80;76.40;;;;;;5043384;28;19996;-69
2022/01/23 06:39:47;;;;;;;;;;;22.80;77.20;;;;;;5073106;28;19908;-69
2022/01/23 06:42:14;;;;;;;;;;;22.80;77.30;;;;;;5067355;28;19912;-70
2022/01/23 06:44:41;;;;;;;;;;;22.80;76.20;;;;;;5068289;28;20406;-70
2022/01/23 06:47:07;;;;;;;;;;;22.80;75.90;;;;;;5066518;28;20394;-68
2022/01/23 06:49:34;;;;;;;;;;;22.80;73.90;;;;;;5071877;28;19924;-68
2022/01/23 06:52:00;;;;;;;;;;;22.80;74.00;;;;;;5076497;28;19947;-68
2022/01/23 06:54:27;;;;;;;;;;;22.80;73.20;;;;;;5077465;28;20094;-68
2022/01/23 06:56:55;;;;;;;;;;;22.70;72.70;;;;;;5072107;28;19920;-69
2022/01/23 06:59:24;;;;;;;;;;;22.70;71.90;;;;;;5071570;28;19999;-67
2022/01/23 07:01:51;;;;;;;;;;;22.70;72.80;;;;;;5071922;28;19912;-71
2022/01/23 07:04:17;;;;;;;;;;;22.70;72.80;;;;;;5071676;28;19915;-71
2022/01/23 07:06:44;;;;;;;;;;;22.70;73.30;;;;;;5053295;28;19916;-71
2022/01/23 07:09:10;;;;;;;;;;;22.70;74.20;;;;;;5069733;28;19912;-70
2022/01/23 07:11:37;;;;;;;;;;;22.70;75.40;;;;;;5072009;28;19999;-71
2022/01/23 07:14:04;;;;;;;;;;;22.70;74.90;;;;;;5076859;28;20447;-70
2022/01/23 07:16:30;;;;;;;;;;;22.60;75.30;;;;;;5072005;28;19926;-70
2022/01/23 07:18:57;;;;;;;;;;;22.70;76.00;;;;;;5071731;28;19930;-71
2022/01/23 07:21:23;;;;;;;;;;;22.60;76.50;;;;;;5086207;28;19947;-71
2022/01/23 07:23:51;;;;;;;;;;;22.60;76.50;;;;;;5071849;28;20362;-71
2022/01/23 07:26:22;;;;;;;;;;;22.60;76.90;;;;;;5071216;28;19916;-71
2022/01/23 07:28:50;;;;;;;;;;;22.60;76.50;;;;;;5058552;28;19930;-70
2022/01/23 07:31:55;;;;;;;;;;;22.50;76.40;;;;;;5071122;28;19908;-70
2022/01/23 07:34:18;;;;;;;;;;;22.50;76.30;;;;;;5075000;28;19915;-69
2022/01/23 07:36:45;;;;;;;;;;;22.50;77.00;;;;;;5053311;28;20445;-69
2022/01/23 07:39:11;;;;;;;;;;;22.40;77.10;;;;;;5070175;28;19908;-70
2022/01/23 07:41:38;;;;;;;;;;;22.50;77.40;;;;;;5071049;28;19934;-71
2022/01/23 07:44:05;;;;;;;;;;;22.40;77.80;;;;;;5071814;28;19914;-70
2022/01/23 07:46:31;;;;;;;;;;;22.50;78.20;;;;;;5071526;28;19901;-71
2022/01/23 07:48:58;;;;;;;;;;;22.50;78.20;;;;;;5071208;28;19916;-72
2022/01/23 07:51:25;;;;;;;;;;;22.50;78.40;;;;;;5053116;28;20010;-71
2022/01/23 07:53:52;;;;;;;;;;;22.50;78.60;;;;;;5070504;28;19908;-70
2022/01/23 08:53:28;;;;;;;;;;;21.70;84.30;;;;;;5053269;28;19928;-68
2022/01/23 08:55:55;;;;;;;;;;;21.60;84.20;;;;;;5051819;28;19917;-70
2022/01/23 08:58:21;;;;;;;;;;;21.50;83.80;;;;;;5051066;28;20311;-70
2022/01/23 09:00:48;;;;;;;;;;;21.40;83.50;;;;;;5061116;28;20026;-69
2022/01/23 09:03:15;;;;;;;;;;;21.50;83.70;;;;;;5051455;28;20055;-70
2022/01/23 09:05:42;;;;;;;;;;;21.50;83.80;;;;;;5068585;28;20011;-70
2022/01/23 09:08:08;;;;;;;;;;;21.50;83.00;;;;;;5054285;28;19909;-69
2022/01/23 09:10:51;;;;;;;;;;;21.50;82.80;;;;;;5063490;28;20120;-68
2022/01/23 09:16:02;;;;;;;;;;;21.50;82.60;;;;;;5033004;28;19979;-68
2022/01/23 09:18:29;;;;;;;;;;;21.50;82.90;;;;;;5036518;28;19913;-68
2022/01/23 09:20:55;;;;;;;;;;;21.50;82.80;;;;;;5034887;28;19952;-68
2022/01/23 09:23:22;;;;;;;;;;;21.50;82.80;;;;;;5055646;28;20007;-68
2022/01/23 09:25:49;;;;;;;;;;;21.50;82.70;;;;;;5072208;28;20273;-69
2022/01/23 09:28:17;;;;;;;;;;;21.50;82.90;;;;;;5073182;28;19908;-70
2022/01/23 09:30:48;;;;;;;;;;;21.50;82.60;;;;;;5064195;28;20019;-69
2022/01/23 09:33:15;;;;;;;;;;;21.40;81.60;;;;;;5072899;28;19908;-69
2022/01/23 09:35:42;;;;;;;;;;;21.40;81.00;;;;;;5071394;28;20385;-69
2022/01/23 09:38:08;;;;;;;;;;;21.40;80.90;;;;;;5074130;28;20371;-69
2022/01/23 09:40:37;;;;;;;;;;;21.40;79.70;;;;;;5056419;28;20311;-70
2022/01/23 09:43:12;;;;;;;;;;;21.40;78.80;;;;;;5048657;28;20347;-71
2022/01/23 09:45:39;;;;;;;;;;;21.30;78.10;;;;;;5039363;28;20007;-74
2022/01/23 09:48:05;;;;;;;;;;;21.30;78.20;;;;;;5065808;28;19913;-71
2022/01/23 09:50:32;;;;;;;;;;;21.30;78.30;;;;;;5055656;28;19921;-70
2022/01/23 09:52:59;;;;;;;;;;;21.30;77.90;;;;;;5082086;28;20314;-71
2022/01/23 09:55:26;;;;;;;;;;;21.30;77.30;;;;;;5092907;28;20032;-68
2022/01/23 09:57:53;;;;;;;;;;;21.30;77.30;;;;;;5099446;28;19908;-69
2022/01/23 10:00:21;;;;;;;;;;;21.40;77.40;;;;;;5093044;28;19904;-69
2022/01/23 10:02:47;;;;;;;;;;;21.40;77.70;;;;;;5092961;28;19915;-69
2022/01/23 10:05:14;;;;;;;;;;;21.40;78.40;;;;;;5093882;28;19912;-69
2022/01/23 10:07:41;;;;;;;;;;;21.30;79.00;;;;;;5095561;28;19915;-70
2022/01/23 10:10:11;;;;;;;;;;;21.30;79.50;;;;;;5092789;28;19915;-70
2022/01/23 10:12:38;;;;;;;;;;;21.30;80.00;;;;;;5093126;28;19950;-69
2022/01/23 10:15:05;;;;;;;;;;;21.30;80.30;;;;;;5093419;28;20111;-69
2022/01/23 10:17:31;;;;;;;;;;;21.30;81.00;;;;;;5092331;28;20401;-70
2022/01/23 10:19:58;;;;;;;;;;;21.30;81.70;;;;;;5093364;28;20332;-70
2022/01/23 10:22:25;;;;;;;;;;;21.30;82.60;;;;;;5092972;28;19904;-70
2022/01/23 10:24:51;;;;;;;;;;;21.30;84.60;;;;;;5092957;28;19915;-69
2022/01/23 10:27:21;;;;;;;;;;;21.10;85.50;;;;;;5092592;28;19911;-70
2022/01/23 10:29:47;;;;;;;;;;;20.80;85.40;;;;;;5093005;28;20401;-70
2022/01/23 10:32:25;;;;;;;;;;;20.70;86.00;;;;;;5093247;28;19928;-70
2022/01/23 10:34:54;;;;;;;;;;;20.50;86.60;;;;;;5092905;28;19908;-70
2022/01/23 10:37:32;;;;;;;;;;;20.40;87.40;;;;;;5092883;28;19908;-71
2022/01/23 10:39:59;;;;;;;;;;;20.40;88.10;;;;;;5092880;28;19908;-71
2022/01/23 10:42:54;;;;;;;;;;;20.30;88.70;;;;;;5094089;28;19920;-70
2022/01/23 10:50:45;;;;;;;;;;;20.40;90.20;;;;;;5073279;28;19966;-70
2022/01/23 10:53:12;;;;;;;;;;;20.50;90.50;;;;;;5092439;28;20050;-70
2022/01/23 10:55:38;;;;;;;;;;;20.50;90.50;;;;;;5092289;28;19953;-70
2022/01/23 10:58:06;;;;;;;;;;;20.60;90.60;;;;;;5092793;28;19940;-70
2022/01/23 11:00:36;;;;;;;;;;;20.60;90.50;;;;;;5092681;28;20285;-70
2022/01/23 11:03:19;;;;;;;;;;;20.60;90.90;;;;;;5091431;28;20362;-70
2022/01/23 11:05:48;;;;;;;;;;;20.60;90.70;;;;;;5095143;28;19907;-70
2022/01/23 11:08:28;;;;;;;;;;;20.70;90.80;;;;;;5092881;28;19908;-70
2022/01/23 11:10:55;;;;;;;;;;;20.60;90.70;;;;;;5092702;28;20011;-70
2022/01/23 11:19:19;;;;;;;;;;;20.50;89.50;;;;;;5075456;28;19977;-69
2022/01/23 11:21:46;;;;;;;;;;;20.50;89.50;;;;;;5091454;28;19907;-69
2022/01/23 11:24:12;;;;;;;;;;;20.60;90.00;;;;;;5097509;28;19915;-71
2022/01/23 11:26:39;;;;;;;;;;;20.70;90.10;;;;;;5075363;28;19908;-72
2022/01/23 11:29:14;;;;;;;;;;;20.70;89.80;;;;;;5091705;28;19942;-72
2022/01/23 11:31:42;;;;;;;;;;;20.70;89.70;;;;;;5091627;28;20346;-72
2022/01/23 11:34:09;;;;;;;;;;;20.70;89.30;;;;;;5089655;28;19930;-72
2022/01/23 11:36:36;;;;;;;;;;;20.70;89.60;;;;;;5085768;28;19908;-72
2022/01/23 11:39:07;;;;;;;;;;;20.60;89.50;;;;;;5078068;28;20368;-72
2022/01/23 11:51:17;;;;;;;;;;;20.50;89.70;;;;;;5059215;28;20345;-71
2022/01/23 11:56:29;;;;;;;;;;;20.40;89.80;;;;;;5106864;28;20365;-72
2022/01/23 11:59:01;;;;;;;;;;;20.40;89.90;;;;;;5103105;28;20367;-72
2022/01/23 12:01:28;;;;;;;;;;;20.50;90.10;;;;;;5072646;28;20001;-72
2022/01/23 12:04:07;;;;;;;;;;;20.50;90.00;;;;;;5100945;28;19910;-71
2022/01/23 12:06:34;;;;;;;;;;;20.40;90.30;;;;;;5104262;28;19966;-72
2022/01/23 12:09:27;;;;;;;;;;;20.40;90.20;;;;;;5101837;28;20392;-72
2022/01/23 12:12:03;;;;;;;;;;;20.40;90.40;;;;;;5105227;28;20377;-72
2022/01/23 12:17:03;;;;;;;;;;;20.40;90.60;;;;;;5099999;28;19955;-72
2022/01/23 12:19:31;;;;;;;;;;;20.40;90.50;;;;;;5090935;28;19915;-72
2022/01/23 12:21:59;;;;;;;;;;;20.40;90.70;;;;;;5074501;28;19912;-72
2022/01/23 12:24:26;;;;;;;;;;;20.40;90.80;;;;;;5103459;28;19919;-71
2022/01/23 12:27:11;;;;;;;;;;;20.40;91.00;;;;;;5101015;28;19915;-72
2022/01/23 12:29:38;;;;;;;;;;;20.40;91.00;;;;;;5067136;28;19916;-72
2022/01/23 12:32:34;;;;;;;;;;;20.40;90.90;;;;;;5093241;28;19914;-72
2022/01/23 12:35:01;;;;;;;;;;;20.50;91.00;;;;;;5102776;28;19911;-71
2022/01/23 12:37:47;;;;;;;;;;;20.50;91.00;;;;;;5097835;28;19954;-71
2022/01/23 12:40:23;;;;;;;;;;;20.50;90.80;;;;;;5091410;28;20230;-71
2022/01/23 12:43:08;;;;;;;;;;;20.50;91.00;;;;;;5092193;28;20483;-71
2022/01/23 12:45:47;;;;;;;;;;;20.50;91.00;;;;;;5091638;28;19923;-71
2022/01/23 12:48:25;;;;;;;;;;;20.50;91.10;;;;;;5098330;28;19915;-71
2022/01/23 12:50:58;;;;;;;;;;;20.50;91.20;;;;;;5091673;28;19915;-71
2022/01/23 12:53:43;;;;;;;;;;;20.50;91.20;;;;;;5090876;28;19920;-71
2022/01/23 12:56:11;;;;;;;;;;;20.40;91.10;;;;;;5096316;28;19982;-71
2022/01/23 12:58:38;;;;;;;;;;;20.50;91.20;;;;;;5110010;28;19931;-71
2022/01/23 13:01:05;;;;;;;;;;;20.50;91.20;;;;;;5105809;28;19904;-71
2022/01/23 13:03:31;;;;;;;;;;;20.50;91.20;;;;;;5073730;28;20258;-72
2022/01/23 13:05:58;;;;;;;;;;;20.40;91.30;;;;;;5095276;28;20433;-71
2022/01/23 13:08:31;;;;;;;;;;;20.50;91.40;;;;;;5110320;28;20272;-71
2022/01/23 13:16:17;;;;;;;;;;;20.50;91.30;;;;;;5098611;28;19903;-71
2022/01/23 13:31:42;;;;;;;;;;;20.40;90.90;;;;;;5104654;28;19930;-71
2022/01/23 13:34:21;;;;;;;;;;;20.40;91.10;;;;;;5101293;28;19969;-71
2022/01/23 13:37:07;;;;;;;;;;;20.30;91.20;;;;;;5100249;28;19912;-71
2022/01/23 13:39:57;;;;;;;;;;;20.40;91.40;;;;;;5095869;28;20273;-71
2022/01/23 13:48:15;;;;;;;;;;;20.40;91.40;;;;;;5110759;28;20277;-71
2022/01/23 13:59:12;;;;;;;;;;;20.40;91.50;;;;;;5111794;28;19915;-71
2022/01/23 14:01:56;;;;;;;;;;;20.30;91.40;;;;;;5076742;28;19998;-72
2022/01/23 14:04:23;;;;;;;;;;;20.30;91.70;;;;;;5105983;28;19915;-71
2022/01/23 14:06:50;;;;;;;;;;;20.20;92.10;;;;;;5107049;28;19908;-71
2022/01/23 14:09:17;;;;;;;;;;;20.20;92.20;;;;;;5077576;28;19916;-72
2022/01/23 14:11:44;;;;;;;;;;;20.30;92.40;;;;;;5093515;28;19915;-71
2022/01/23 14:14:12;;;;;;;;;;;20.30;92.40;;;;;;5094778;28;19935;-71
2022/01/23 14:16:38;;;;;;;;;;;20.30;92.40;;;;;;5099842;28;19915;-71
2022/01/23 14:19:15;;;;;;;;;;;20.30;92.40;;;;;;5102715;28;19904;-71
2022/01/23 14:21:42;;;;;;;;;;;20.30;92.40;;;;;;5107749;28;20333;-71
2022/01/23 14:24:08;;;;;;;;;;;20.30;92.40;;;;;;5107458;28;19988;-71
2022/01/23 14:26:35;;;;;;;;;;;20.30;92.40;;;;;;5097718;28;19916;-72
2022/01/23 14:29:05;;;;;;;;;;;20.30;92.40;;;;;;5094158;28;19965;-71
2022/01/23 14:31:41;;;;;;;;;;;20.30;92.40;;;;;;5093293;28;20279;-71
2022/01/23 14:34:23;;;;;;;;;;;20.30;92.40;;;;;;5094332;28;20346;-71
2022/01/23 14:36:56;;;;;;;;;;;20.30;92.50;;;;;;5093016;28;19999;-71
2022/01/23 14:39:23;;;;;;;;;;;20.30;92.50;;;;;;5102282;28;19930;-71
2022/01/23 14:41:50;;;;;;;;;;;20.30;92.50;;;;;;5113593;28;19904;-71
2022/01/23 14:44:24;;;;;;;;;;;20.30;92.60;;;;;;5110779;28;19919;-71
2022/01/23 14:46:51;;;;;;;;;;;20.30;92.50;;;;;;5107024;28;19947;-71
2022/01/23 14:49:29;;;;;;;;;;;20.30;92.50;;;;;;5112386;28;20392;-71
2022/01/23 14:51:57;;;;;;;;;;;20.30;92.50;;;;;;5095672;28;20278;-71
2022/01/23 14:54:24;;;;;;;;;;;20.30;92.50;;;;;;5075663;28;19908;-71
2022/01/23 14:56:51;;;;;;;;;;;20.40;92.60;;;;;;5092510;28;20271;-72
2022/01/23 14:59:17;;;;;;;;;;;20.40;92.60;;;;;;5092165;28;19914;-71
2022/01/23 15:01:45;;;;;;;;;;;20.40;92.70;;;;;;5104214;28;19914;-71
2022/01/23 15:04:11;;;;;;;;;;;20.40;92.60;;;;;;5087812;28;19915;-71
2022/01/23 15:06:46;;;;;;;;;;;20.40;92.60;;;;;;5073664;28;19965;-72
2022/01/23 15:09:13;;;;;;;;;;;20.40;92.60;;;;;;5093705;28;20270;-71
2022/01/23 15:11:39;;;;;;;;;;;20.40;92.60;;;;;;5094319;28;20410;-71
2022/01/23 15:14:06;;;;;;;;;;;20.40;92.70;;;;;;5111621;28;19908;-71
2022/01/23 15:16:33;;;;;;;;;;;20.40;92.60;;;;;;5109497;28;19908;-71
2022/01/23 15:18:59;;;;;;;;;;;20.40;92.50;;;;;;5097103;28;19911;-71
2022/01/23 15:21:26;;;;;;;;;;;20.40;92.50;;;;;;5092238;28;19958;-72
2022/01/23 15:23:55;;;;;;;;;;;20.40;92.40;;;;;;5086307;28;19904;-71
2022/01/23 15:26:23;;;;;;;;;;;20.40;92.50;;;;;;5095913;28;20274;-71
2022/01/23 15:28:49;;;;;;;;;;;20.40;92.50;;;;;;5098393;28;20297;-71
2022/01/23 15:31:16;;;;;;;;;;;20.40;92.50;;;;;;5110466;28;19947;-71
2022/01/23 15:33:42;;;;;;;;;;;20.40;92.50;;;;;;5108730;28;19903;-71
2022/01/23 15:36:09;;;;;;;;;;;20.40;92.50;;;;;;5091972;28;19908;-72
2022/01/23 15:38:41;;;;;;;;;;;20.40;92.40;;;;;;5100264;28;20004;-72
2022/01/23 15:41:07;;;;;;;;;;;20.40;92.70;;;;;;5084310;28;19912;-71
2022/01/23 15:43:34;;;;;;;;;;;20.30;92.90;;;;;;5091466;28;20377;-71
2022/01/23 15:46:01;;;;;;;;;;;20.30;93.20;;;;;;5074831;28;19916;-71
2022/01/23 15:48:30;;;;;;;;;;;20.30;93.40;;;;;;5093490;28;19908;-71
2022/01/23 15:50:57;;;;;;;;;;;20.20;93.40;;;;;;5111691;28;19915;-71
2022/01/23 15:53:24;;;;;;;;;;;20.20;93.70;;;;;;5111848;28;19962;-71
2022/01/23 15:55:51;;;;;;;;;;;20.20;93.60;;;;;;5093220;28;19908;-72
2022/01/23 15:58:17;;;;;;;;;;;20.20;93.60;;;;;;5100529;28;20292;-71
2022/01/23 16:00:44;;;;;;;;;;;20.20;93.80;;;;;;5097587;28;19911;-71
2022/01/23 16:03:10;;;;;;;;;;;20.20;93.90;;;;;;5111471;28;20483;-71
2022/01/23 16:05:37;;;;;;;;;;;20.20;93.90;;;;;;5092715;28;19908;-71
2022/01/23 16:08:04;;;;;;;;;;;20.10;93.90;;;;;;5092562;28;19908;-72
2022/01/23 16:10:30;;;;;;;;;;;20.10;94.00;;;;;;5091209;28;20006;-72
2022/01/23 16:12:57;;;;;;;;;;;20.10;94.20;;;;;;5091441;28;19921;-72
2022/01/23 16:15:23;;;;;;;;;;;20.10;94.20;;;;;;5090791;28;19947;-72
2022/01/23 16:17:50;;;;;;;;;;;20.10;94.20;;;;;;5094895;28;19915;-72
2022/01/23 16:20:17;;;;;;;;;;;20.10;94.20;;;;;;5090573;28;20281;-72
2022/01/23 16:22:44;;;;;;;;;;;20.10;94.20;;;;;;5092401;28;19915;-72
2022/01/23 16:25:11;;;;;;;;;;;20.00;94.30;;;;;;5102629;28;19908;-72
2022/01/23 16:27:38;;;;;;;;;;;20.00;94.30;;;;;;5085221;28;20353;-72
2022/01/23 16:30:05;;;;;;;;;;;20.00;94.40;;;;;;5091406;28;19923;-72
2022/01/23 16:32:31;;;;;;;;;;;20.00;94.50;;;;;;5079096;28;20346;-72
2022/01/23 16:34:58;;;;;;;;;;;20.00;94.40;;;;;;5091403;28;20255;-72
2022/01/23 16:37:25;;;;;;;;;;;20.00;94.40;;;;;;5091820;28;20014;-72
2022/01/23 16:39:51;;;;;;;;;;;20.00;94.50;;;;;;5102886;28;19907;-72
2022/01/23 16:42:18;;;;;;;;;;;20.00;94.70;;;;;;5057218;28;19950;-72
2022/01/23 16:44:45;;;;;;;;;;;20.00;94.70;;;;;;5082573;28;19908;-72
2022/01/23 16:47:12;;;;;;;;;;;20.00;94.70;;;;;;5106665;28;20355;-71
2022/01/23 16:49:39;;;;;;;;;;;20.00;94.70;;;;;;5091209;28;19934;-72
2022/01/23 16:52:09;;;;;;;;;;;20.00;94.80;;;;;;5090743;28;20002;-72
2022/01/23 16:54:36;;;;;;;;;;;19.90;94.80;;;;;;5087777;28;20300;-72
2022/01/23 16:57:03;;;;;;;;;;;20.00;94.90;;;;;;5091283;28;20338;-72
2022/01/23 16:59:30;;;;;;;;;;;20.00;94.90;;;;;;5074388;28;19963;-72
2022/01/23 17:01:56;;;;;;;;;;;20.00;94.90;;;;;;5091082;28;19944;-72
2022/01/23 17:04:23;;;;;;;;;;;20.00;95.00;;;;;;5090869;28;19908;-72
2022/01/23 17:06:50;;;;;;;;;;;19.90;95.00;;;;;;5093803;28;20415;-72
2022/01/23 17:09:17;;;;;;;;;;;19.90;95.00;;;;;;5106469;28;19912;-72
2022/01/23 17:11:43;;;;;;;;;;;20.00;95.10;;;;;;5102723;28;20006;-72
2022/01/23 17:14:10;;;;;;;;;;;19.90;95.10;;;;;;5115425;28;19957;-71
2022/01/23 17:16:36;;;;;;;;;;;19.90;95.10;;;;;;5115432;28;19957;-70
2022/01/23 17:19:03;;;;;;;;;;;19.90;95.20;;;;;;5086590;28;19916;-71
2022/01/23 17:21:29;;;;;;;;;;;19.90;95.20;;;;;;5086883;28;20364;-71
2022/01/23 17:23:56;;;;;;;;;;;19.90;95.30;;;;;;5076024;28;19908;-71
2022/01/23 17:26:26;;;;;;;;;;;19.90;95.30;;;;;;5094343;28;19969;-71
2022/01/23 17:28:52;;;;;;;;;;;19.90;95.30;;;;;;5086033;28;19958;-70
2022/01/23 17:31:19;;;;;;;;;;;19.90;95.30;;;;;;5086480;28;19965;-70
2022/01/23 17:33:45;;;;;;;;;;;19.80;95.20;;;;;;5093297;28;19915;-70
2022/01/23 17:36:13;;;;;;;;;;;19.80;95.30;;;;;;5094491;28;19912;-71
2022/01/23 17:50:21;;;;;;;;;;;19.70;95.30;;;;;;5093070;28;20030;-71
2022/01/23 17:52:50;;;;;;;;;;;19.70;95.30;;;;;;5093672;28;19926;-70
2022/01/23 17:55:17;;;;;;;;;;;19.70;95.30;;;;;;5093825;28;19956;-70
2022/01/23 17:57:43;;;;;;;;;;;19.70;95.10;;;;;;5093970;28;19950;-70
2022/01/23 18:00:10;;;;;;;;;;;19.70;95.20;;;;;;5093322;28;19931;-70
2022/01/23 18:02:37;;;;;;;;;;;19.70;95.20;;;;;;5093092;28;19915;-71
2022/01/23 18:05:04;;;;;;;;;;;19.60;95.20;;;;;;5093720;28;19904;-71
2022/01/23 18:07:31;;;;;;;;;;;19.60;95.10;;;;;;5093963;28;20346;-71
2022/01/23 18:09:58;;;;;;;;;;;19.60;95.30;;;;;;5093385;28;19916;-71
2022/01/23 18:12:25;;;;;;;;;;;19.60;95.20;;;;;;5091079;28;19916;-71
2022/01/23 18:14:53;;;;;;;;;;;19.60;95.30;;;;;;5093296;28;20333;-71
2022/01/23 18:17:21;;;;;;;;;;;19.60;95.20;;;;;;5092709;28;20006;-71
2022/01/23 18:19:48;;;;;;;;;;;19.60;95.20;;;;;;5092657;28;20293;-70
2022/01/23 18:22:15;;;;;;;;;;;19.60;95.20;;;;;;5093539;28;19908;-71
2022/01/23 18:24:42;;;;;;;;;;;19.70;95.40;;;;;;5093485;28;19923;-71
2022/01/23 18:27:09;;;;;;;;;;;19.60;95.40;;;;;;5093516;28;20001;-71
2022/01/23 18:29:36;;;;;;;;;;;19.60;95.30;;;;;;5093507;28;19916;-71
2022/01/23 18:32:06;;;;;;;;;;;19.60;95.30;;;;;;5093647;28;20370;-71
2022/01/23 18:34:33;;;;;;;;;;;19.60;95.20;;;;;;5093036;28;19912;-71
2022/01/23 18:37:00;;;;;;;;;;;19.60;95.30;;;;;;5093156;28;19973;-71
2022/01/23 18:39:27;;;;;;;;;;;19.70;95.40;;;;;;5093477;28;19903;-71
2022/01/23 18:41:54;;;;;;;;;;;19.70;95.40;;;;;;5093261;28;19908;-71
2022/01/23 18:44:22;;;;;;;;;;;19.70;95.30;;;;;;5093166;28;20282;-70
2022/01/23 18:46:49;;;;;;;;;;;19.70;95.40;;;;;;5092469;28;19908;-71
2022/01/23 18:49:15;;;;;;;;;;;19.70;95.40;;;;;;5093036;28;19938;-71
